• Join FlightAware (Why Join?)
  • Login
  • US Flag 
07:32AM EDT


 

Airport Tracker/Info


-or-


 

Live Flight TrackerFlight Track Log ✈ UAL33 ✈ 27-Sep-2013 ✈ RJAA / NRT - KLAX

Flight Track Log - Related Links

Times and Time Zones

All times are in EDT time to prevent confusion due to time zone crossing. See the UAL33 flight status page for this flight to view local times or setup timezone preferences in your user account.

Time Position Orientation Groundspeed Altitude Reporting Facility
EDT Latitude Longitude Course Direction KTS MPH feet Rate Location/Type
04:32AM 35.7770 140.3660 329° Northwest 171 197 1,000  Level FlightAware
04:32AM 35.7850 140.3600 329° Northwest 172 198 1,500 2,220 Climbing FlightAware
04:33AM 35.7990 140.3500 330° Northwest 175 201 2,200 2,220 Climbing FlightAware
04:33AM 35.8170 140.3380 332° Northwest 177 204 3,200 1,860 Climbing FlightAware
04:33AM 35.8310 140.3270 328° Northwest 201 231 3,600 1,140 Climbing FlightAware
04:34AM 35.8500 140.3130 329° Northwest 230 265 4,000 1,380 Climbing FlightAware
04:34AM 35.8700 140.3000 332° Northwest 251 289 4,600 2,100 Climbing FlightAware
04:34AM 35.8790 140.2960 340° North 252 290 5,000 2,520 Climbing FlightAware
04:34AM 35.8870 140.2960 360° North 253 291 5,200 2,280 Climbing FlightAware
04:35AM 35.9070 140.3040 18° North 247 284 6,000 2,160 Climbing FlightAware
04:35AM 35.9210 140.3280 54° Northeast 271 312 6,600 1,860 Climbing FlightAware
04:35AM 35.9220 140.3340 78° East 274 315 6,700 600 Climbing FlightAware
04:35AM 35.9230 140.3430 82° East 276 318 6,700 660 Level FlightAware
04:35AM 35.9190 140.3690 101° East 253 291 7,000 1,800 Climbing FlightAware
04:36AM 35.9090 140.3970 114° Southeast 284 327 7,900 2,520 Climbing FlightAware
04:36AM 35.8990 140.4160 123° Southeast 290 334 8,500 2,580 Climbing FlightAware
04:36AM 35.8810 140.4490 124° Southeast 292 336 9,500 2,100 Climbing FlightAware
04:37AM 35.8530 140.4960 126° Southeast 312 359 10,500 1,500 Climbing FlightAware
04:37AM 35.8210 140.5510 126° Southeast 357 411 11,300 1,740 Climbing FlightAware
04:38AM 35.7940 140.6110 119° Southeast 369 425 12,500 2,460 Climbing FlightAware
04:39AM 35.7770 140.6780 107° East 382 440 13,900 2,160 Climbing FlightAware
04:39AM 35.7570 140.7570 107° East 407 468 15,000 1,380 Climbing FlightAware
04:40AM 35.7360 140.8410 107° East 436 502 15,600 1,560 Climbing FlightAware
04:40AM 35.7160 140.9220 107° East 450 518 16,800 2,040 Climbing FlightAware
04:41AM 35.6950 141.0050 107° East 459 528 17,900 1,980 Climbing FlightAware
04:41AM 35.6720 141.0990 107° East 474 545 19,100 1,800 Climbing FlightAware
04:42AM 35.6500 141.1870 107° East 485 558 20,000 1,440 Climbing FlightAware
04:43AM 35.6250 141.2840 108° East 501 577 20,800 1,320 Climbing FlightAware
04:43AM 35.6010 141.3780 107° East 511 588 21,600 1,440 Climbing FlightAware
04:44AM 35.5760 141.4780 107° East 519 597 22,500 1,500 Climbing FlightAware
04:44AM 35.5480 141.5910 107° East 528 608 23,500 1,380 Climbing FlightAware
04:45AM 35.5410 141.6680 96° East 540 621 24,000 1,320 Climbing FlightAware
04:45AM 35.5480 141.7440 84° East 545 627 24,600 1,260 Climbing FlightAware
04:46AM 35.5710 141.8470 75° East 552 635 25,300 1,260 Climbing FlightAware
04:46AM 35.5960 141.9520 74° East 558 642 26,100 1,260 Climbing FlightAware
04:47AM 35.6280 142.0590 70° East 561 646 26,800 1,200 Climbing FlightAware
04:48AM 35.6600 142.1630 69° East 570 656 27,500 1,080 Climbing FlightAware
04:48AM 35.7110 142.2990 65° Northeast 579 666 28,300 1,020 Climbing FlightAware
04:49AM 35.7570 142.4190 65° Northeast 587 676 29,000 1,200 Climbing FlightAware
04:50AM 35.7960 142.5240 65° Northeast 585 673 29,800 1,320 Climbing FlightAware
04:50AM 35.8360 142.6290 65° Northeast 584 672 30,600 1,380 Climbing FlightAware
04:51AM 35.8700 142.7210 65° Northeast 583 671 31,300 1,500 Climbing FlightAware
04:52AM 35.9230 142.8610 65° Northeast 580 667 32,600 1,500 Climbing FlightAware
04:52AM 35.9650 142.9750 65° Northeast 577 664 33,500 1,380 Climbing FlightAware
04:53AM 36.0020 143.0790 66° East 576 663 34,300 1,260 Climbing FlightAware
04:53AM 36.0320 143.1610 66° East 574 661 34,900 1,200 Climbing FlightAware
04:54AM 36.0710 143.2670 65° Northeast 581 669 35,600 960 Climbing FlightAware
04:54AM 36.1220 143.3780 60° Northeast 571 657 36,100 840 Climbing FlightAware
04:55AM 36.1680 143.4720 59° Northeast 571 657 36,600 960 Climbing FlightAware
04:56AM 36.2130 143.5650 59° Northeast 568 654 37,200 900 Climbing FlightAware
04:56AM 36.2580 143.6590 59° Northeast 565 650 37,700 720 Climbing FlightAware
04:57AM 36.3060 143.7580 59° Northeast 566 651 38,100 360 Climbing FlightAware
04:57AM 36.3580 143.8670 59° Northeast 567 652 38,200 60 Climbing FlightAware
04:58AM 36.4000 143.9520 58° Northeast 567 652 38,200  Level FlightAware
04:59AM 36.4410 144.0380 59° Northeast 567 652 38,200  Level FlightAware
04:59AM 36.4820 144.1230 59° Northeast 567 652 38,200  Level FlightAware
05:00AM 36.5240 144.2090 59° Northeast 567 652 38,200  Level FlightAware
05:00AM 36.5650 144.2950 59° Northeast 567 652 38,200  Level FlightAware
05:01AM 36.6040 144.3760 59° Northeast 567 652 38,200  Level FlightAware
05:02AM 36.6470 144.4640 59° Northeast 567 652 38,200  Level FlightAware
05:02AM 36.6880 144.5490 59° Northeast 567 652 38,200  Level FlightAware
05:03AM 36.7290 144.6350 59° Northeast 567 652 38,200  Level FlightAware
05:03AM 36.7710 144.7210 59° Northeast 567 652 38,200  Level FlightAware
05:04AM 36.8120 144.8070 59° Northeast 567 652 38,200  Level FlightAware
05:05AM 36.8530 144.8930 59° Northeast 567 652 38,200  Level FlightAware
05:05AM 36.8950 144.9790 59° Northeast 567 652 38,200  Level FlightAware
05:06AM 36.9370 145.0680 59° Northeast 567 652 38,200  Level FlightAware
05:06AM 36.9800 145.1560 59° Northeast 567 652 38,200  Level FlightAware
05:09AM 37.1441 145.4950 59° Northeast  Level Estimated
05:10AM 37.2219 145.6569 59° Northeast  Level Estimated
05:11AM 37.2994 145.8192 59° Northeast  Level Estimated
05:12AM 37.3768 145.9818 59° Northeast  Level Estimated
05:13AM 37.4539 146.1448 59° Northeast  Level Estimated
05:14AM 37.5308 146.3081 59° Northeast  Level Estimated
05:15AM 37.6074 146.4717 59° Northeast  Level Estimated
05:16AM 37.6839 146.6356 59° Northeast  Level Estimated
05:17AM 37.7601 146.7999 60° Northeast  Level Estimated
05:18AM 37.8361 146.9646 60° Northeast  Level Estimated
05:19AM 37.9118 147.1295 60° Northeast  Level Estimated
05:20AM 37.9874 147.2948 60° Northeast  Level Estimated
05:21AM 38.0627 147.4605 60° Northeast  Level Estimated
05:22AM 38.1377 147.6265 60° Northeast  Level Estimated
05:23AM 38.2126 147.7928 60° Northeast  Level Estimated
05:24AM 38.2872 147.9595 60° Northeast  Level Estimated
05:25AM 38.3615 148.1265 60° Northeast  Level Estimated
05:26AM 38.4356 148.2939 60° Northeast  Level Estimated
05:27AM 38.5095 148.4616 61° Northeast  Level Estimated
05:28AM 38.5832 148.6296 61° Northeast  Level Estimated
05:29AM 38.6566 148.7980 61° Northeast  Level Estimated
05:30AM 38.7297 148.9668 61° Northeast  Level Estimated
05:31AM 38.8026 149.1358 61° Northeast  Level Estimated
05:32AM 38.8753 149.3053 61° Northeast  Level Estimated
05:33AM 38.9477 149.4750 61° Northeast  Level Estimated
05:34AM 39.0199 149.6452 61° Northeast  Level Estimated
05:35AM 39.0919 149.8156 61° Northeast  Level Estimated
05:36AM 39.1635 149.9864 62° Northeast  Level Estimated
05:37AM 39.2350 150.1576 62° Northeast  Level Estimated
05:38AM 39.3061 150.3291 62° Northeast  Level Estimated
05:39AM 39.3771 150.5010 62° Northeast  Level Estimated
05:40AM 39.4478 150.6732 62° Northeast  Level Estimated
05:41AM 39.5182 150.8457 62° Northeast  Level Estimated
05:42AM 39.5883 151.0186 62° Northeast  Level Estimated
05:43AM 39.6582 151.1919 62° Northeast  Level Estimated
05:44AM 39.7279 151.3655 62° Northeast  Level Estimated
05:45AM 39.7973 151.5395 63° Northeast  Level Estimated
05:46AM 39.8664 151.7138 63° Northeast  Level Estimated
05:47AM 39.9353 151.8884 63° Northeast  Level Estimated
05:48AM 40.0039 152.0635 63° Northeast  Level Estimated
05:49AM 40.0722 152.2388 63° Northeast  Level Estimated
05:50AM 40.1403 152.4145 63° Northeast  Level Estimated
05:51AM 40.2081 152.5906 63° Northeast  Level Estimated
05:52AM 40.2757 152.7670 63° Northeast  Level Estimated
05:53AM 40.3430 152.9438 63° Northeast  Level Estimated
05:54AM 40.4100 153.1209 64° Northeast  Level Estimated
05:55AM 40.4767 153.2984 64° Northeast  Level Estimated
05:56AM 40.5432 153.4762 64° Northeast  Level Estimated
05:57AM 40.6094 153.6544 64° Northeast  Level Estimated
05:58AM 40.6753 153.8329 64° Northeast  Level Estimated
05:59AM 40.7409 154.0118 64° Northeast  Level Estimated
06:00AM 40.8063 154.1911 64° Northeast  Level Estimated
06:01AM 40.8714 154.3707 64° Northeast  Level Estimated
06:02AM 40.9362 154.5506 64° Northeast  Level Estimated
06:03AM 41.0007 154.7309 65° Northeast  Level Estimated
06:04AM 41.0650 154.9115 65° Northeast  Level Estimated
06:05AM 41.1289 155.0925 65° Northeast  Level Estimated
06:06AM 41.1926 155.2739 65° Northeast  Level Estimated
06:07AM 41.2560 155.4556 65° Northeast  Level Estimated
06:08AM 41.3191 155.6377 65° Northeast  Level Estimated
06:09AM 41.3820 155.8201 65° Northeast  Level Estimated
06:10AM 41.4445 156.0028 65° Northeast  Level Estimated
06:11AM 41.5067 156.1859 66° East  Level Estimated
06:12AM 41.5687 156.3694 66° East  Level Estimated
06:13AM 41.6303 156.5532 66° East  Level Estimated
06:14AM 41.6917 156.7374 66° East  Level Estimated
06:15AM 41.7528 156.9219 66° East  Level Estimated
06:16AM 41.8135 157.1068 66° East  Level Estimated
06:17AM 41.8740 157.2920 66° East  Level Estimated
06:18AM 41.9342 157.4776 66° East  Level Estimated
06:19AM 41.9941 157.6635 67° East  Level Estimated
06:20AM 42.0537 157.8498 67° East  Level Estimated
06:21AM 42.1129 158.0364 67° East  Level Estimated
06:22AM 42.1719 158.2234 67° East  Level Estimated
06:23AM 42.2306 158.4107 67° East  Level Estimated
06:24AM 42.2890 158.5983 67° East  Level Estimated
06:25AM 42.3470 158.7864 67° East  Level Estimated
06:26AM 42.4048 158.9747 67° East  Level Estimated
06:27AM 42.4622 159.1634 68° East  Level Estimated
06:28AM 42.5193 159.3525 68° East  Level Estimated
06:29AM 42.5762 159.5419 68° East  Level Estimated
06:30AM 42.6327 159.7316 68° East  Level Estimated
06:31AM 42.6889 159.9217 68° East  Level Estimated
06:32AM 42.7448 160.1121 68° East  Level Estimated
06:33AM 42.8003 160.3029 68° East  Level Estimated
06:34AM 42.8565 160.4973 68° East  Level Estimated
06:35AM 42.9124 160.6921 69° East  Level Estimated
06:36AM 42.9679 160.8872 69° East  Level Estimated
06:37AM 43.0232 161.0827 69° East  Level Estimated
06:38AM 43.0780 161.2785 69° East  Level Estimated
06:39AM 43.1326 161.4747 69° East  Level Estimated
06:40AM 43.1868 161.6712 69° East  Level Estimated
06:41AM 43.2407 161.8681 69° East  Level Estimated
06:42AM 43.2942 162.0654 69° East  Level Estimated
06:43AM 43.3474 162.2629 70° East  Level Estimated
06:44AM 43.4002 162.4608 70° East  Level Estimated
06:45AM 43.4527 162.6591 70° East  Level Estimated
06:46AM 43.5049 162.8577 70° East  Level Estimated
06:46AM 46.4167 162.3167 60° Northeast 563 648 39,000  Level Anchorage Center
06:47AM 43.5567 163.0567 70° East  Level Estimated
06:47AM 46.5667 162.6833 61° Northeast 565 650 39,000  Level Anchorage Center
06:48AM 43.6082 163.2560 70° East  Level Estimated
06:49AM 43.6593 163.4556 70° East  Level Estimated
06:50AM 43.7101 163.6556 71° East  Level Estimated
06:51AM 43.7605 163.8559 71° East  Level Estimated
06:52AM 46.8833 163.5246 61° Northeast 563 648 39,000  Level FlightAware Transoceanic
06:53AM 46.9598 163.7280 61° Northeast 563 648 39,000  Level FlightAware Transoceanic
06:54AM 47.0307 163.9049 61° Northeast 565 650 39,000  Level FlightAware Transoceanic
06:55AM 47.1068 164.1105 62° Northeast 565 650 39,000  Level FlightAware Transoceanic
06:56AM 47.1825 164.3167 62° Northeast 565 650 39,000  Level FlightAware Transoceanic
06:57AM 47.2578 164.5235 62° Northeast 565 650 39,000  Level FlightAware Transoceanic
06:57AM 47.2833 164.6000 62° Northeast 563 648 39,000  Level Anchorage Center
06:58AM 47.3328 164.7309 62° Northeast 565 650 39,000  Level FlightAware Transoceanic
06:59AM 47.4074 164.9389 62° Northeast 565 650 39,000  Level FlightAware Transoceanic
07:00AM 47.4816 165.1475 62° Northeast 565 650 39,000  Level FlightAware Transoceanic
07:01AM 47.5554 165.3567 62° Northeast 565 650 39,000  Level FlightAware Transoceanic
07:02AM 47.6288 165.5664 63° Northeast 565 650 39,000  Level FlightAware Transoceanic
07:03AM 47.7192 165.8312 63° Northeast 563 648 39,000  Level FlightAware Transoceanic
07:04AM 47.7905 166.0383 63° Northeast 563 648 39,000  Level FlightAware Transoceanic
07:05AM 47.8615 166.2461 63° Northeast 563 648 39,000  Level FlightAware Transoceanic
07:06AM 47.9321 166.4544 63° Northeast 563 648 39,000  Level FlightAware Transoceanic
07:07AM 48.0023 166.6633 63° Northeast 563 648 39,000  Level FlightAware Transoceanic
07:07AM 47.9667 166.5667 63° Northeast 565 650 39,000  Level Anchorage Center
07:08AM 48.0722 166.8727 64° Northeast 563 648 39,000  Level FlightAware Transoceanic
07:09AM 48.1416 167.0828 64° Northeast 563 648 39,000  Level FlightAware Transoceanic
07:10AM 48.2107 167.2934 64° Northeast 563 648 39,000  Level FlightAware Transoceanic
07:11AM 48.2794 167.5045 64° Northeast 563 648 39,000  Level FlightAware Transoceanic
07:12AM 48.3477 167.7162 64° Northeast 563 648 39,000  Level FlightAware Transoceanic
07:13AM 48.4018 167.8892 64° Northeast 565 650 39,000  Level FlightAware Transoceanic
07:14AM 48.4728 168.1118 64° Northeast 565 650 39,000  Level FlightAware Transoceanic
07:15AM 48.5434 168.3350 65° Northeast 565 650 39,000  Level FlightAware Transoceanic
07:16AM 48.6136 168.5589 65° Northeast 565 650 39,000  Level FlightAware Transoceanic
07:16AM 48.6167 168.6167 59° Northeast 585 673 39,000  Level Anchorage Center
07:17AM 48.6833 168.7833 66° East 565 650 39,000  Level FlightAware Transoceanic
07:17AM 48.6833 168.7833 66° East 577 664 39,000  Level Anchorage Center
07:18AM 48.7472 168.9990 66° East 565 650 39,000  Level FlightAware Transoceanic
07:19AM 48.8106 169.2152 66° East 565 650 39,000  Level FlightAware Transoceanic
07:20AM 48.8736 169.4320 66° East 565 650 39,000  Level FlightAware Transoceanic
07:21AM 48.9363 169.6493 66° East 565 650 39,000  Level FlightAware Transoceanic
07:22AM 48.9985 169.8672 67° East 565 650 39,000  Level FlightAware Transoceanic
07:23AM 49.0603 170.0856 67° East 577 664 39,000  Level FlightAware Transoceanic
07:24AM 49.1217 170.3045 67° East 577 664 39,000  Level FlightAware Transoceanic
07:25AM 49.1827 170.5240 67° East 577 664 39,000  Level FlightAware Transoceanic
07:26AM 49.2432 170.7440 67° East 577 664 39,000  Level FlightAware Transoceanic
07:26AM 49.2333 170.7500 67° East 581 669 39,000  Level Anchorage Center
07:27AM 49.3034 170.9646 67° East 577 664 39,000  Level FlightAware Transoceanic
07:27AM 49.2833 170.9500 68° East 590 679 39,000  Level Anchorage Center
07:28AM 49.3631 171.1857 68° East 577 664 39,000  Level FlightAware Transoceanic
07:28AM 49.3333 171.1500 69° East 590 679 39,000  Level Anchorage Center
07:29AM 49.4224 171.4073 68° East 577 664 39,000  Level FlightAware Transoceanic
07:30AM 49.4813 171.6295 68° East 577 664 39,000  Level FlightAware Transoceanic
07:30AM 49.4500 171.6000 68° East 590 679 39,000  Level Anchorage Center
07:31AM 49.5397 171.8522 68° East 577 664 39,000  Level FlightAware Transoceanic
07:31AM 49.5167 171.8500 68° East 590 679 39,000  Level Anchorage Center
07:32AM 49.6062 172.1406 68° East 581 669 39,000  Level FlightAware Transoceanic
07:32AM 49.5833 172.1000 68° East 580 667 39,000  Level Anchorage Center
07:33AM 49.6500 172.3000 63° Northeast 580 667 39,000  Level Anchorage Center
07:34AM 49.7000 172.5500 73° East 590 679 39,000  Level Anchorage Center
07:35AM 49.7667 172.7667 64° Northeast 590 679 39,000  Level Anchorage Center
07:36AM 49.8167 173.0167 73° East 590 679 39,000  Level Anchorage Center
07:37AM 49.8667 173.2167 69° East 580 667 39,000  Level Anchorage Center
07:38AM 49.9333 173.4833 69° East 600 690 39,000  Level Anchorage Center
07:39AM 49.9833 173.6833 69° East 580 667 39,000  Level Anchorage Center
07:40AM 50.0500 173.9500 69° East 590 679 39,000  Level Anchorage Center
07:41AM 50.1167 174.2000 67° East 580 667 39,000  Level Anchorage Center
07:42AM 50.1667 174.4167 70° East 590 679 39,000  Level Anchorage Center
07:43AM 50.2167 174.6667 73° East 590 679 39,000  Level Anchorage Center
07:44AM 50.2667 174.8833 70° East 600 690 39,000  Level Anchorage Center
07:45AM 50.3333 175.1500 69° East 590 679 39,000  Level Anchorage Center
07:46AM 50.3833 175.3667 70° East 600 690 39,000  Level Anchorage Center
07:47AM 50.4333 175.6167 72° East 580 667 39,000  Level Anchorage Center
07:48AM 50.5000 175.8833 68° East 590 679 39,000  Level Anchorage Center
07:49AM 50.5333 176.1000 76° East 600 690 39,000  Level Anchorage Center
07:50AM 50.5833 176.3667 73° East 600 690 39,000  Level Anchorage Center
07:51AM 50.6167 176.5833 76° East 590 679 39,000  Level Anchorage Center
07:52AM 50.6667 176.8667 74° East 590 679 39,000  Level Anchorage Center
07:54AM 50.7333 177.3500 78° East 600 690 39,000  Level Anchorage Center
07:55AM 50.7833 177.5833 71° East 590 679 39,000  Level Anchorage Center
07:56AM 50.8167 177.8500 79° East 600 690 39,000  Level Anchorage Center
07:57AM 50.8500 178.1167 79° East 590 679 39,000  Level Anchorage Center
07:58AM 50.8833 178.3500 77° East 600 690 39,000  Level Anchorage Center
07:59AM 50.9333 178.6167 73° East 590 679 39,000  Level Anchorage Center
08:00AM 50.9667 178.8500 77° East 600 690 39,000  Level Anchorage Center
08:01AM 51.0000 179.1167 79° East 570 656 39,000  Level Anchorage Center
08:04AM 51.1333 -179.9667 78° East 595 685 39,000  Level Anchorage Center
08:10AM 51.2994 -178.6445 79° East 595 685 39,000  Level FlightAware Transoceanic
08:11AM 51.3308 -178.3789 79° East 595 685 39,000  Level FlightAware Transoceanic
08:12AM 51.3616 -178.1130 80° East 595 685 39,000  Level FlightAware Transoceanic
08:13AM 51.3918 -177.8467 80° East 595 685 39,000  Level FlightAware Transoceanic
08:14AM 51.4214 -177.5801 80° East 595 685 39,000  Level FlightAware Transoceanic
08:14AM 51.4333 -177.4667 80° East 595 685 39,000  Level Anchorage Center
08:15AM 51.4504 -177.3131 80° East 595 685 39,000  Level FlightAware Transoceanic
08:16AM 51.4788 -177.0458 80° East 595 685 39,000  Level FlightAware Transoceanic
08:17AM 51.5066 -176.7782 81° East 595 685 39,000  Level FlightAware Transoceanic
08:18AM 51.5338 -176.5102 81° East 595 685 39,000  Level FlightAware Transoceanic
08:19AM 51.5603 -176.2419 81° East 595 685 39,000  Level FlightAware Transoceanic
08:20AM 51.5944 -175.8836 81° East 595 685 39,000  Level FlightAware Transoceanic
08:21AM 51.6192 -175.6187 82° East 595 685 39,000  Level FlightAware Transoceanic
08:22AM 51.6434 -175.3535 82° East 595 685 39,000  Level FlightAware Transoceanic
08:23AM 51.6670 -175.0881 82° East 595 685 39,000  Level FlightAware Transoceanic
08:23AM 51.6833 -174.9500 82° East 596 686 39,000  Level Anchorage Center
08:24AM 51.6899 -174.8223 82° East 595 685 39,000  Level FlightAware Transoceanic
08:25AM 51.7123 -174.5563 82° East 595 685 39,000  Level FlightAware Transoceanic
08:26AM 51.7341 -174.2900 83° East 595 685 39,000  Level FlightAware Transoceanic
08:27AM 51.7553 -174.0235 83° East 595 685 39,000  Level FlightAware Transoceanic
08:28AM 51.7758 -173.7568 83° East 595 685 39,000  Level FlightAware Transoceanic
08:29AM 51.7958 -173.4897 83° East 595 685 39,000  Level FlightAware Transoceanic
08:30AM 51.8119 -173.3080 83° East 596 686 39,000  Level FlightAware Transoceanic
08:31AM 51.8312 -173.0335 84° East 596 686 39,000  Level FlightAware Transoceanic
08:32AM 51.8497 -172.7587 84° East 596 686 39,000  Level FlightAware Transoceanic
08:33AM 51.8676 -172.4837 84° East 596 686 39,000  Level FlightAware Transoceanic
08:33AM 51.8667 -172.4333 84° East 581 669 39,000  Level Anchorage Center
08:34AM 51.8849 -172.2085 84° East 596 686 39,000  Level FlightAware Transoceanic
08:35AM 51.9016 -171.9331 85° East 596 686 39,000  Level FlightAware Transoceanic
08:36AM 51.9176 -171.6575 85° East 596 686 39,000  Level FlightAware Transoceanic
08:37AM 51.9329 -171.3817 85° East 596 686 39,000  Level FlightAware Transoceanic
08:38AM 51.9476 -171.1057 85° East 596 686 39,000  Level FlightAware Transoceanic
08:39AM 51.9527 -170.9751 85° East 581 669 39,000  Level FlightAware Transoceanic
08:40AM 51.9653 -170.7315 85° East 581 669 39,000  Level FlightAware Transoceanic
08:41AM 51.9773 -170.4878 85° East 581 669 39,000  Level FlightAware Transoceanic
08:42AM 51.9889 -170.2440 86° East 581 669 39,000  Level FlightAware Transoceanic
08:43AM 52.0000 -170.0000 86° East 581 669 39,000  Level FlightAware Transoceanic
08:44AM 52.0108 -169.7376 86° East 581 669 39,000  Level FlightAware Transoceanic
08:44AM 52.0000 -170.0000 86° East 589 678 39,000  Level Anchorage Center
08:44AM 52.0000 -169.9333 86° East 594 684 39,000  Level Anchorage Center
08:45AM 52.0211 -169.4751 86° East 581 669 39,000  Level FlightAware Transoceanic
08:46AM 52.0308 -169.2125 87° East 581 669 39,000  Level FlightAware Transoceanic
08:47AM 52.0399 -168.9497 87° East 581 669 39,000  Level FlightAware Transoceanic
08:48AM 52.0484 -168.6869 87° East 581 669 39,000  Level FlightAware Transoceanic
08:49AM 52.0563 -168.4239 87° East 581 669 39,000  Level FlightAware Transoceanic
08:50AM 52.0641 -168.0570 88° East 594 684 39,000  Level FlightAware Transoceanic
08:51AM 52.0708 -167.7886 88° East 594 684 39,000  Level FlightAware Transoceanic
08:52AM 52.0769 -167.5201 88° East 594 684 39,000  Level FlightAware Transoceanic
08:52AM 52.0833 -167.4000 88° East 601 692 39,000  Level Anchorage Center
08:53AM 52.0824 -167.2515 88° East 594 684 39,000  Level FlightAware Transoceanic
08:54AM 52.0873 -166.9828 88° East 594 684 39,000  Level FlightAware Transoceanic
08:55AM 52.0916 -166.7141 89° East 594 684 39,000  Level FlightAware Transoceanic
08:56AM 52.0953 -166.4453 89° East 594 684 39,000  Level FlightAware Transoceanic
08:57AM 52.0983 -166.1765 89° East 594 684 39,000  Level FlightAware Transoceanic
08:58AM 52.1029 -166.0288 89° East 601 692 39,000  Level FlightAware Transoceanic
08:59AM 52.1049 -165.7544 89° East 601 692 39,000  Level FlightAware Transoceanic
09:00AM 52.1063 -165.4800 90° East 601 692 39,000  Level FlightAware Transoceanic
09:01AM 52.1070 -165.2056 90° East 601 692 39,000  Level FlightAware Transoceanic
09:02AM 52.1071 -164.9312 90° East 601 692 39,000  Level FlightAware Transoceanic
09:03AM 52.1065 -164.6568 90° East 601 692 39,000  Level FlightAware Transoceanic
09:04AM 52.1054 -164.3824 91° East 601 692 39,000  Level FlightAware Transoceanic
09:05AM 52.1035 -164.1080 91° East 601 692 39,000  Level FlightAware Transoceanic
09:06AM 52.1011 -163.8337 91° East 601 692 39,000  Level FlightAware Transoceanic
09:07AM 52.0980 -163.5594 91° East 601 692 39,000  Level FlightAware Transoceanic
09:08AM 52.0943 -163.2851 91° East 601 692 39,000  Level FlightAware Transoceanic
09:09AM 52.0899 -163.0109 92° East 601 692 39,000  Level FlightAware Transoceanic
09:10AM 52.0849 -162.7368 92° East 601 692 39,000  Level FlightAware Transoceanic
09:10AM 52.0833 -162.4833 92° East 605 696 39,000  Level Oakland Oceanic (ODAPS)
09:11AM 52.0793 -162.4626 92° East 601 692 39,000  Level FlightAware Transoceanic
09:12AM 52.0730 -162.1886 92° East 601 692 39,000  Level FlightAware Transoceanic
09:13AM 52.0661 -161.9147 92° East 601 692 39,000  Level FlightAware Transoceanic
09:14AM 52.0586 -161.6408 93° East 601 692 39,000  Level FlightAware Transoceanic
09:15AM 52.0504 -161.3671 93° East 601 692 39,000  Level FlightAware Transoceanic
09:16AM 52.0416 -161.0934 93° East 601 692 39,000  Level FlightAware Transoceanic
09:17AM 52.0336 -160.8267 93° East 605 696 39,000  Level FlightAware Transoceanic
09:18AM 52.0230 -160.5510 94° East 605 696 39,000  Level FlightAware Transoceanic
09:19AM 52.0118 -160.2754 94° East 605 696 39,000  Level FlightAware Transoceanic
09:19AM 51.9833 -160.0167 96° East 550 633 39,000  Level Anchorage Center
09:19AM 52.0000 -160.0000 95° East 614 707 39,000  Level Oakland Oceanic (ODAPS)
09:20AM 52.0000 -160.0000 95° East 605 696 39,000  Level FlightAware Transoceanic
09:21AM 51.9847 -159.7319 95° East 605 696 39,000  Level FlightAware Transoceanic
09:22AM 51.9688 -159.4640 96° East 605 696 39,000  Level FlightAware Transoceanic
09:22AM 51.9500 -159.1667 96° East 619 712 39,000  Level Oakland Oceanic (ODAPS)
09:23AM 51.9523 -159.1963 96° East 605 696 39,000  Level FlightAware Transoceanic
09:24AM 51.9352 -158.9288 96° East 605 696 39,000  Level FlightAware Transoceanic
09:24AM 51.9167 -158.6667 96° East 621 715 39,000  Level Oakland Oceanic (ODAPS)
09:27AM 51.8766 -158.0771 97° East 614 707 39,000  Level FlightAware Transoceanic
09:28AM 51.8564 -157.8033 97° East 614 707 39,000  Level FlightAware Transoceanic
09:29AM 51.8309 -157.4736 97° East 619 712 39,000  Level FlightAware Transoceanic
09:30AM 51.7938 -157.0169 98° East 621 715 39,000  Level FlightAware Transoceanic
09:31AM 51.7711 -156.7428 98° East 621 715 39,000  Level FlightAware Transoceanic
09:32AM 51.7478 -156.4690 98° East 621 715 39,000  Level FlightAware Transoceanic
09:33AM 51.7238 -156.1956 98° East 621 715 39,000  Level FlightAware Transoceanic
09:34AM 51.6992 -155.9223 98° East 621 715 39,000  Level FlightAware Transoceanic
09:35AM 51.6739 -155.6494 99° East 621 715 39,000  Level FlightAware Transoceanic
09:36AM 51.6480 -155.3769 99° East 621 715 39,000  Level FlightAware Transoceanic
09:37AM 51.6215 -155.1046 99° East 621 715 39,000  Level FlightAware Transoceanic
09:38AM 51.5944 -154.8326 99° East 621 715 39,000  Level FlightAware Transoceanic
09:38AM 51.6000 -154.8500 99° East 619 712 39,000  Level Oakland Oceanic (ODAPS)
09:39AM 51.5666 -154.5610 99° East 621 715 39,000  Level FlightAware Transoceanic
09:40AM 51.5382 -154.2897 100° East 621 715 39,000  Level FlightAware Transoceanic
09:41AM 51.5092 -154.0188 100° East 621 715 39,000  Level FlightAware Transoceanic
09:42AM 51.4796 -153.7482 100° East 621 715 39,000  Level FlightAware Transoceanic
09:43AM 51.4493 -153.4780 100° East 621 715 39,000  Level FlightAware Transoceanic
09:44AM 51.4184 -153.2081 101° East 621 715 39,000  Level FlightAware Transoceanic
09:45AM 51.3905 -152.9490 101° East 619 712 39,000  Level FlightAware Transoceanic
09:46AM 51.3581 -152.6789 101° East 619 712 39,000  Level FlightAware Transoceanic
09:47AM 51.3251 -152.4091 101° East 619 712 39,000  Level FlightAware Transoceanic
09:48AM 51.2914 -152.1398 101° East 619 712 39,000  Level FlightAware Transoceanic
09:49AM 51.2571 -151.8709 102° East 619 712 39,000  Level FlightAware Transoceanic
09:50AM 51.2222 -151.6024 102° East 619 712 39,000  Level FlightAware Transoceanic
09:51AM 51.1867 -151.3342 102° East 619 712 39,000  Level FlightAware Transoceanic
09:52AM 51.1506 -151.0665 102° East 619 712 39,000  Level FlightAware Transoceanic
09:52AM 51.1500 -151.1000 102° East 623 717 39,000  Level Oakland Oceanic (ODAPS)
09:53AM 51.1138 -150.7993 102° East 619 712 39,000  Level FlightAware Transoceanic
09:54AM 51.0765 -150.5324 103° East 619 712 39,000  Level FlightAware Transoceanic
09:55AM 51.0386 -150.2660 103° East 619 712 39,000  Level FlightAware Transoceanic
09:56AM 51.0000 -150.0000 111° Southeast 619 712 39,000  Level FlightAware Transoceanic
09:56AM 51.0000 -150.0000 111° Southeast 607 699 39,000  Level Oakland Oceanic (ODAPS)
09:57AM 50.9430 -149.7646 111° Southeast 619 712 39,000  Level FlightAware Transoceanic
09:58AM 50.8856 -149.5298 111° Southeast 623 717 39,000  Level FlightAware Transoceanic
09:59AM 50.8277 -149.2955 111° Southeast 623 717 39,000  Level FlightAware Transoceanic
10:00AM 50.7693 -149.0619 112° Southeast 623 717 39,000  Level FlightAware Transoceanic
10:01AM 50.7105 -148.8288 112° Southeast 623 717 39,000  Level FlightAware Transoceanic
10:02AM 50.6346 -148.5315 112° Southeast 607 699 39,000  Level FlightAware Transoceanic
10:03AM 50.5719 -148.2890 112° Southeast 607 699 39,000  Level FlightAware Transoceanic
10:04AM 50.5087 -148.0472 112° Southeast 607 699 39,000  Level FlightAware Transoceanic
10:05AM 50.4450 -147.8060 113° Southeast 607 699 39,000  Level FlightAware Transoceanic
10:06AM 50.3808 -147.5654 113° Southeast 607 699 39,000 1,620 Level FlightAware Transoceanic
10:06AM 50.4000 -147.6167 113° Southeast 589 678 41,000  Climbing Oakland Oceanic (ODAPS)
10:07AM 50.3161 -147.3255 113° Southeast 607 699 39,000 -1,140 Descending FlightAware Transoceanic
10:08AM 50.2510 -147.0862 113° Southeast 607 699 39,000  Level FlightAware Transoceanic
10:09AM 50.1853 -146.8477 113° Southeast 607 699 39,000  Level FlightAware Transoceanic
10:10AM 50.1191 -146.6097 114° Southeast 607 699 39,000  Level FlightAware Transoceanic
10:11AM 50.0525 -146.3725 114° Southeast 607 699 39,000 960 Level FlightAware Transoceanic
10:12AM 50.0136 -146.2189 114° Southeast 589 678 41,000 960 Climbing FlightAware Transoceanic
10:13AM 49.9476 -145.9882 114° Southeast 589 678 41,000  Level FlightAware Transoceanic
10:14AM 49.8811 -145.7581 114° Southeast 589 678 41,000  Level FlightAware Transoceanic
10:15AM 49.8141 -145.5286 114° Southeast 589 678 41,000  Level FlightAware Transoceanic
10:16AM 49.7468 -145.2998 115° Southeast 589 678 41,000  Level FlightAware Transoceanic
10:17AM 49.6789 -145.0716 115° Southeast 589 678 41,000  Level FlightAware Transoceanic
10:18AM 49.6106 -144.8440 115° Southeast 589 678 41,000  Level FlightAware Transoceanic
10:19AM 49.5419 -144.6171 115° Southeast 589 678 41,000  Level FlightAware Transoceanic
10:20AM 49.4727 -144.3908 115° Southeast 589 678 41,000  Level FlightAware Transoceanic
10:20AM 49.4833 -144.4167 115° Southeast 587 676 41,000  Level Oakland Oceanic (ODAPS)
10:21AM 49.4031 -144.1651 115° Southeast 589 678 41,000  Level FlightAware Transoceanic
10:22AM 49.3331 -143.9401 116° Southeast 589 678 41,000  Level FlightAware Transoceanic
10:23AM 49.2626 -143.7158 116° Southeast 589 678 41,000  Level FlightAware Transoceanic
10:24AM 49.1917 -143.4921 116° Southeast 589 678 41,000  Level FlightAware Transoceanic
10:25AM 49.1203 -143.2690 116° Southeast 589 678 41,000  Level FlightAware Transoceanic
10:26AM 49.0562 -143.0643 116° Southeast 587 676 41,000  Level FlightAware Transoceanic
10:27AM 48.9835 -142.8412 117° Southeast 587 676 41,000  Level FlightAware Transoceanic
10:28AM 48.9103 -142.6187 117° Southeast 587 676 41,000  Level FlightAware Transoceanic
10:29AM 48.8368 -142.3969 117° Southeast 587 676 41,000  Level FlightAware Transoceanic
10:30AM 48.7628 -142.1757 117° Southeast 587 676 41,000  Level FlightAware Transoceanic
10:31AM 48.6884 -141.9552 117° Southeast 587 676 41,000  Level FlightAware Transoceanic
10:32AM 48.6135 -141.7354 117° Southeast 587 676 41,000  Level FlightAware Transoceanic
10:33AM 48.5383 -141.5162 118° Southeast 587 676 41,000  Level FlightAware Transoceanic
10:33AM 48.4833 -141.3667 117° Southeast 574 661 41,000  Level Oakland Oceanic (ODAPS)
10:34AM 48.4626 -141.2976 118° Southeast 587 676 41,000  Level FlightAware Transoceanic
10:35AM 48.3865 -141.0797 118° Southeast 587 676 41,000  Level FlightAware Transoceanic
10:36AM 48.3100 -140.8625 118° Southeast 587 676 41,000  Level FlightAware Transoceanic
10:37AM 48.2331 -140.6459 118° Southeast 587 676 41,000  Level FlightAware Transoceanic
10:38AM 48.1558 -140.4299 118° Southeast 587 676 41,000  Level FlightAware Transoceanic
10:39AM 48.0781 -140.2146 118° Southeast 587 676 41,000  Level FlightAware Transoceanic
10:40AM 48.0000 -140.0000 122° Southeast 574 661 41,000  Level FlightAware Transoceanic
10:40AM 48.0000 -140.0000 122° Southeast 563 648 41,000  Level Oakland Oceanic (ODAPS)
10:41AM 47.9202 -139.8088 122° Southeast 574 661 41,000  Level FlightAware Transoceanic
10:42AM 47.8401 -139.6182 122° Southeast 574 661 41,000  Level FlightAware Transoceanic
10:43AM 47.7598 -139.4282 122° Southeast 574 661 41,000  Level FlightAware Transoceanic
10:44AM 47.6791 -139.2387 122° Southeast 574 661 41,000  Level FlightAware Transoceanic
10:45AM 47.5980 -139.0499 123° Southeast 574 661 41,000  Level FlightAware Transoceanic
10:46AM 47.4989 -138.8206 123° Southeast 563 648 41,000  Level FlightAware Transoceanic
10:47AM 47.4142 -138.6262 123° Southeast 563 648 41,000  Level FlightAware Transoceanic
10:47AM 47.4000 -138.5833 123° Southeast 549 632 41,000  Level Oakland Oceanic (ODAPS)
10:48AM 47.3292 -138.4325 123° Southeast 563 648 41,000  Level FlightAware Transoceanic
10:49AM 47.2439 -138.2394 123° Southeast 563 648 41,000  Level FlightAware Transoceanic
10:50AM 47.1582 -138.0469 123° Southeast 563 648 41,000  Level FlightAware Transoceanic
10:51AM 47.0723 -137.8550 123° Southeast 563 648 41,000  Level FlightAware Transoceanic
10:52AM 46.9860 -137.6638 124° Southeast 563 648 41,000  Level FlightAware Transoceanic
10:53AM 46.8993 -137.4731 124° Southeast 563 648 41,000  Level FlightAware Transoceanic
10:54AM 46.8971 -137.4594 124° Southeast 549 632 41,000  Level FlightAware Transoceanic
10:55AM 46.8122 -137.2742 124° Southeast 549 632 41,000  Level FlightAware Transoceanic
10:56AM 46.7271 -137.0895 124° Southeast 549 632 41,000  Level FlightAware Transoceanic
10:57AM 46.6416 -136.9054 124° Southeast 549 632 41,000  Level FlightAware Transoceanic
10:58AM 46.5558 -136.7219 124° Southeast 549 632 41,000  Level FlightAware Transoceanic
10:59AM 46.4698 -136.5390 124° Southeast 549 632 41,000  Level FlightAware Transoceanic
11:00AM 46.3834 -136.3566 125° Southeast 549 632 41,000  Level FlightAware Transoceanic
11:01AM 46.2968 -136.1748 125° Southeast 549 632 41,000  Level FlightAware Transoceanic
11:01AM 46.2167 -136.0167 125° Southeast 545 627 41,000  Level Oakland Oceanic (ODAPS)
11:02AM 46.2099 -135.9936 125° Southeast 549 632 41,000  Level FlightAware Transoceanic
11:03AM 46.1227 -135.8130 125° Southeast 549 632 41,000  Level FlightAware Transoceanic
11:04AM 46.0352 -135.6329 125° Southeast 549 632 41,000  Level FlightAware Transoceanic
11:05AM 45.9474 -135.4535 125° Southeast 549 632 41,000  Level FlightAware Transoceanic
11:06AM 45.8594 -135.2746 125° Southeast 549 632 41,000  Level FlightAware Transoceanic
11:07AM 45.7770 -135.1157 125° Southeast 545 627 41,000  Level FlightAware Transoceanic
11:08AM 45.6882 -134.9372 126° Southeast 545 627 41,000  Level FlightAware Transoceanic
11:09AM 45.5992 -134.7593 126° Southeast 545 627 41,000  Level FlightAware Transoceanic
11:10AM 45.5098 -134.5820 126° Southeast 545 627 41,000  Level FlightAware Transoceanic
11:11AM 45.4202 -134.4052 126° Southeast 545 627 41,000  Level FlightAware Transoceanic
11:12AM 45.3304 -134.2289 126° Southeast 545 627 41,000  Level FlightAware Transoceanic
11:13AM 45.2402 -134.0533 126° Southeast 545 627 41,000  Level FlightAware Transoceanic
11:14AM 45.1498 -133.8782 126° Southeast 545 627 41,000  Level FlightAware Transoceanic
11:15AM 45.0591 -133.7036 126° Southeast 545 627 41,000  Level FlightAware Transoceanic
11:15AM 45.0333 -133.6500 126° Southeast 536 617 41,000  Level Oakland Oceanic (ODAPS)
11:16AM 44.9682 -133.5296 127° Southeast 545 627 41,000  Level FlightAware Transoceanic
11:17AM 44.8770 -133.3562 127° Southeast 545 627 41,000  Level FlightAware Transoceanic
11:18AM 44.7855 -133.1833 127° Southeast 545 627 41,000  Level FlightAware Transoceanic
11:19AM 44.6938 -133.0109 127° Southeast 545 627 41,000  Level FlightAware Transoceanic
11:20AM 44.6018 -132.8391 127° Southeast 545 627 41,000  Level FlightAware Transoceanic
11:21AM 44.5142 -132.6735 127° Southeast 536 617 41,000  Level FlightAware Transoceanic
11:22AM 44.4269 -132.5125 127° Southeast 536 617 41,000  Level FlightAware Transoceanic
11:23AM 44.3394 -132.3519 127° Southeast 536 617 41,000  Level FlightAware Transoceanic
11:24AM 44.2516 -132.1918 128° Southeast 536 617 41,000  Level FlightAware Transoceanic
11:25AM 44.1636 -132.0322 128° Southeast 536 617 41,000  Level FlightAware Transoceanic
11:26AM 44.0754 -131.8731 128° Southeast 536 617 41,000  Level FlightAware Transoceanic
11:27AM 43.9869 -131.7144 128° Southeast 536 617 41,000  Level FlightAware Transoceanic
11:28AM 43.8983 -131.5562 128° Southeast 536 617 41,000  Level FlightAware Transoceanic
11:29AM 43.8094 -131.3985 128° Southeast 536 617 41,000  Level FlightAware Transoceanic
11:29AM 43.7833 -131.3500 128° Southeast 536 617 41,000  Level Oakland Oceanic (ODAPS)
11:30AM 43.7203 -131.2413 128° Southeast 536 617 41,000  Level FlightAware Transoceanic
11:31AM 43.6310 -131.0845 128° Southeast 536 617 41,000  Level FlightAware Transoceanic
11:32AM 43.5415 -130.9282 128° Southeast 536 617 41,000  Level FlightAware Transoceanic
11:33AM 43.4518 -130.7723 128° Southeast 536 617 41,000  Level FlightAware Transoceanic
11:34AM 43.3618 -130.6170 129° Southeast 536 617 41,000  Level FlightAware Transoceanic
11:35AM 43.2629 -130.4461 129° Southeast 536 617 41,000  Level FlightAware Transoceanic
11:36AM 43.1754 -130.2970 129° Southeast 536 617 41,000  Level FlightAware Transoceanic
11:37AM 43.0878 -130.1483 129° Southeast 536 617 41,000  Level FlightAware Transoceanic
11:37AM 43.0000 -130.0000 116° Southeast 541 623 41,000  Level Oakland Oceanic (ODAPS)
11:38AM 43.0000 -130.0000 116° Southeast 536 617 41,000  Level FlightAware Transoceanic
11:39AM 42.9309 -129.8103 117° Southeast 536 617 41,000  Level FlightAware Transoceanic
11:40AM 42.8614 -129.6211 117° Southeast 536 617 41,000  Level FlightAware Transoceanic
11:41AM 42.7917 -129.4322 117° Southeast 536 617 41,000  Level FlightAware Transoceanic
11:42AM 42.7216 -129.2439 117° Southeast 536 617 41,000  Level FlightAware Transoceanic
11:43AM 42.6512 -129.0559 117° Southeast 536 617 41,000  Level FlightAware Transoceanic
11:43AM 42.6333 -129.0000 117° Southeast 549 632 41,000  Level Oakland Oceanic (ODAPS)
11:44AM 42.5806 -128.8683 117° Southeast 541 623 41,000  Level FlightAware Transoceanic
11:45AM 42.5096 -128.6812 117° Southeast 541 623 41,000  Level FlightAware Transoceanic
11:46AM 42.4383 -128.4945 117° Southeast 541 623 41,000  Level FlightAware Transoceanic
11:47AM 42.3667 -128.3082 118° Southeast 541 623 41,000  Level FlightAware Transoceanic
11:48AM 42.2948 -128.1224 118° Southeast 541 623 41,000  Level FlightAware Transoceanic
11:49AM 42.2134 -127.9094 118° Southeast 549 632 41,000  Level FlightAware Transoceanic
11:49AM 42.1706 -127.8039 134° Southeast 545 627 41,000  Level Oakland Center
11:50AM 42.1424 -127.7290 118° Southeast 549 632 41,000 -120 Level FlightAware Transoceanic
11:50AM 42.1047 -127.6217 116° Southeast 541 623 40,900  Descending Seattle Center
11:51AM 42.0712 -127.5491 118° Southeast 549 632 41,000  Climbing FlightAware Transoceanic
11:51AM 42.0339 -127.4425 118° Southeast 542 624 40,900  Descending Seattle Center
11:52AM 41.9996 -127.3695 118° Southeast 549 632 41,000  Climbing FlightAware Transoceanic
11:52AM 41.9631 -127.2619 118° Southeast 546 628 40,900  Descending Seattle Center
11:53AM 41.9278 -127.1904 118° Southeast 549 632 41,000 60 Climbing FlightAware Transoceanic
11:54AM 41.8557 -127.0117 119° Southeast 549 632 41,000 -120 Level FlightAware Transoceanic
11:54AM 41.8917 -127.0844 118° Southeast 544 626 40,900  Descending Seattle Center
11:55AM 41.7833 -126.8333 134° Southeast 549 632 41,000  Climbing FlightAware Transoceanic
11:55AM 41.8064 -126.8708 118° Southeast 543 625 40,900  Descending Seattle Center
11:56AM 41.7092 -126.7208 131° Southeast 536 617 41,000  Climbing Seattle Center
11:57AM 41.6044 -126.5772 134° Southeast 540 621 40,900  Descending Seattle Center
11:58AM 41.5019 -126.4364 134° Southeast 533 613 41,000  Climbing Seattle Center
11:59AM 41.3944 -126.3008 137° Southeast 534 615 40,900 -60 Descending Seattle Center
12:00PM 41.2839 -126.1678 138° Southeast 535 616 40,900  Level Seattle Center
12:01PM 41.1758 -126.0336 137° Southeast 534 615 41,000  Climbing Seattle Center
12:02PM 41.0672 -125.8994 137° Southeast 538 619 40,900  Descending Oakland Center
12:08PM 40.3940 -125.0950 137° Southeast 537 618 41,000  Climbing FlightAware
12:08PM 40.3260 -125.0150 138° Southeast 533 613 41,000  Level FlightAware
12:09PM 40.2680 -124.9470 138° Southeast 531 611 41,000  Level FlightAware
12:09PM 40.2020 -124.8700 138° Southeast 530 610 41,000  Level FlightAware
12:10PM 40.1410 -124.7990 138° Southeast 530 610 41,000  Level FlightAware
12:11PM 40.0740 -124.7200 138° Southeast 530 610 41,000  Level FlightAware
12:11PM 40.0340 -124.6740 139° Southeast 531 611 41,000  Level FlightAware
12:12PM 39.9460 -124.5720 138° Southeast 532 612 41,000  Level FlightAware
12:12PM 39.8820 -124.4970 138° Southeast 531 611 41,000  Level FlightAware
12:13PM 39.8160 -124.4220 139° Southeast 531 611 41,000  Level FlightAware
12:13PM 39.7550 -124.3510 138° Southeast 532 612 41,000  Level FlightAware
12:14PM 39.6890 -124.2750 138° Southeast 533 613 41,000  Level FlightAware
12:15PM 39.6220 -124.1990 139° Southeast 534 615 41,000  Level FlightAware
12:15PM 39.5560 -124.1240 139° Southeast 534 615 41,000  Level FlightAware
12:16PM 39.4950 -124.0540 138° Southeast 532 612 41,000  Level FlightAware
12:16PM 39.4270 -123.9770 139° Southeast 532 612 41,000  Level FlightAware
12:17PM 39.3630 -123.9050 139° Southeast 530 610 41,000  Level FlightAware
12:17PM 39.3050 -123.8390 139° Southeast 527 606 41,000  Level FlightAware
12:18PM 39.2340 -123.7590 139° Southeast 526 605 41,000  Level FlightAware
12:19PM 39.1680 -123.6840 139° Southeast 525 604 41,000  Level FlightAware
12:19PM 39.1050 -123.6130 139° Southeast 524 603 41,000  Level FlightAware
12:20PM 39.0450 -123.5470 139° Southeast 524 603 41,000  Level FlightAware
12:20PM 38.9780 -123.4710 139° Southeast 525 604 41,000  Level FlightAware
12:21PM 38.9170 -123.4050 140° Southeast 525 604 41,000  Level FlightAware
12:22PM 38.8530 -123.3330 139° Southeast 526 605 41,000  Level FlightAware
12:22PM 38.7840 -123.2560 139° Southeast 526 605 41,000  Level FlightAware
12:23PM 38.7180 -123.1830 139° Southeast 528 608 41,000  Level FlightAware
12:23PM 38.6540 -123.1140 140° Southeast 529 609 41,000  Level FlightAware
12:24PM 38.5950 -123.0480 139° Southeast 530 610 41,000  Level FlightAware
12:24PM 38.5330 -122.9800 139° Southeast 529 609 41,000  Level FlightAware
12:25PM 38.4620 -122.9020 139° Southeast 531 611 41,000  Level FlightAware
12:26PM 38.3900 -122.8240 140° Southeast 532 612 41,000  Level FlightAware
12:26PM 38.3290 -122.7570 139° Southeast 531 611 41,000  Level FlightAware
12:27PM 38.2580 -122.6810 140° Southeast 532 612 41,000  Level FlightAware
12:27PM 38.1940 -122.6120 140° Southeast 531 611 41,000  Level FlightAware
12:28PM 38.1370 -122.5500 139° Southeast 531 611 41,000  Level FlightAware
12:29PM 38.0710 -122.4780 139° Southeast 531 611 41,000  Level FlightAware
12:29PM 38.0010 -122.4030 140° Southeast 531 611 41,000  Level FlightAware
12:30PM 37.9330 -122.3310 140° Southeast 533 613 41,000  Level FlightAware
12:30PM 37.8650 -122.2580 140° Southeast 534 615 41,000  Level FlightAware
12:31PM 37.7980 -122.1860 140° Southeast 533 613 41,000  Level FlightAware
12:32PM 37.7360 -122.1200 140° Southeast 532 612 41,000  Level FlightAware
12:32PM 37.6720 -122.0520 140° Southeast 534 615 41,000  Level FlightAware ADS-B
12:33PM 37.6143 -121.9910 140° Southeast 533 613 41,000  Level FlightAware ADS-B
12:33PM 37.5502 -121.9230 140° Southeast 532 612 41,000  Level FlightAware ADS-B
12:34PM 37.4926 -121.8620 140° Southeast 531 611 41,000  Level FlightAware ADS-B
12:34PM 37.4354 -121.8020 140° Southeast 530 610 41,000  Level FlightAware ADS-B
12:35PM 37.3679 -121.7310 140° Southeast 530 610 41,000  Level FlightAware ADS-B
12:35PM 37.3108 -121.6710 140° Southeast 528 608 41,000  Level FlightAware ADS-B
12:36PM 37.2527 -121.6100 140° Southeast 528 608 41,000  Level FlightAware ADS-B
12:36PM 37.1937 -121.5490 141° Southeast 530 610 41,000  Level FlightAware ADS-B
12:37PM 37.1364 -121.4890 140° Southeast 530 610 41,000  Level FlightAware ADS-B
12:37PM 37.0741 -121.4240 140° Southeast 532 612 41,000  Level FlightAware ADS-B
12:38PM 37.0140 -121.3620 141° Southeast 532 612 41,000  Level FlightAware ADS-B
12:39PM 36.9490 -121.2950 141° Southeast 531 611 41,000  Level FlightAware
12:39PM 36.8870 -121.2310 140° Southeast 531 611 41,000  Level FlightAware
12:39PM 36.8439 -121.1860 140° Southeast 532 612 41,000  Level FlightAware ADS-B
12:40PM 36.7630 -121.1030 141° Southeast 532 612 41,000  Level FlightAware ADS-B
12:41PM 36.7004 -121.0390 141° Southeast 531 611 41,000  Level FlightAware ADS-B
12:41PM 36.6179 -120.9540 140° Southeast 532 612 41,000  Level FlightAware ADS-B
12:42PM 36.5601 -120.8950 141° Southeast 532 612 41,000  Level FlightAware ADS-B
12:43PM 36.4698 -120.8030 141° Southeast 533 613 41,000  Level FlightAware ADS-B
12:43PM 36.4170 -120.7500 141° Southeast 532 612 41,000  Level FlightAware
12:44PM 36.3455 -120.6780 141° Southeast 533 613 41,000  Level FlightAware ADS-B
12:44PM 36.2869 -120.6180 140° Southeast 531 611 41,000  Level FlightAware ADS-B
12:45PM 36.2120 -120.5430 141° Southeast 531 611 41,000  Level FlightAware
12:45PM 36.1653 -120.4960 141° Southeast 531 611 41,000  Level FlightAware ADS-B
12:46PM 36.1065 -120.4360 140° Southeast 533 613 41,000  Level FlightAware ADS-B
12:46PM 36.0408 -120.3710 141° Southeast 531 611 41,000  Level FlightAware ADS-B
12:47PM 35.9450 -120.2750 141° Southeast 532 612 41,000  Level FlightAware
12:48PM 35.8724 -120.2020 141° Southeast 531 611 41,000  Level FlightAware ADS-B
12:48PM 35.8097 -120.1400 141° Southeast 531 611 41,000  Level FlightAware ADS-B
12:49PM 35.7510 -120.0820 141° Southeast 529 609 41,000  Level FlightAware
12:50PM 35.6860 -120.0170 141° Southeast 528 608 41,000  Level FlightAware
12:50PM 35.6070 -119.9440 143° Southeast 524 603 41,000  Level FlightAware
12:51PM 35.5460 -119.8910 145° Southeast 519 597 41,000 -960 Level FlightAware
12:51PM 35.4730 -119.8280 145° Southeast 521 600 39,900 -2,520 Descending FlightAware
12:52PM 35.4110 -119.7740 145° Southeast 533 613 38,200 -3,300 Descending FlightAware
12:53PM 35.3310 -119.7060 145° Southeast 542 624 36,100 -3,060 Descending FlightAware
12:53PM 35.2670 -119.6510 145° Southeast 540 621 34,600 -3,480 Descending FlightAware
12:54PM 35.1950 -119.5890 145° Southeast 543 625 32,300 -3,840 Descending FlightAware
12:54PM 35.1180 -119.5240 145° Southeast 533 613 30,000 -3,360 Descending FlightAware
12:55PM 35.0460 -119.4620 145° Southeast 526 605 28,200 -2,760 Descending FlightAware
12:55PM 34.9760 -119.4030 145° Southeast 518 596 26,700 -2,460 Descending FlightAware
12:56PM 34.9080 -119.3450 145° Southeast 511 588 25,300 -2,460 Descending FlightAware
12:57PM 34.8460 -119.2920 145° Southeast 502 578 24,000 -2,460 Descending FlightAware
12:57PM 34.7810 -119.2380 146° Southeast 491 565 22,700 -1,980 Descending FlightAware
12:58PM 34.7230 -119.1880 145° Southeast 481 554 21,600 -2,220 Descending FlightAware
12:59PM 34.6360 -119.1150 145° Southeast 467 537 19,700 -2,460 Descending FlightAware
12:59PM 34.5740 -119.0640 146° Southeast 461 531 18,500 -2,820 Descending FlightAware
01:00PM 34.5110 -119.0200 150° Southeast 439 505 16,500 -3,720 Descending FlightAware
01:00PM 34.4510 -118.9840 154° Southeast 437 503 14,300 -3,660 Descending FlightAware
01:01PM 34.3840 -118.9430 153° Southeast 429 494 12,200 -1,860 Descending FlightAware
01:01PM 34.3220 -118.9050 153° Southeast 387 445 12,000 -180 Descending FlightAware
01:02PM 34.2760 -118.8780 154° Southeast 356 410 12,000  Level FlightAware
01:03PM 34.2230 -118.8460 153° Southeast 326 375 12,000 -480 Level FlightAware
01:03PM 34.1790 -118.8200 154° Southeast 315 362 11,500 -960 Descending FlightAware
01:04PM 34.1340 -118.8000 160° South 304 350 11,000 -1,140 Descending FlightAware
01:04PM 34.0810 -118.7800 163° South 300 345 10,200 -1,140 Descending FlightAware
01:05PM 34.0630 -118.7690 153° Southeast 294 338 10,000 -360 Descending FlightAware
01:05PM 34.0450 -118.7470 135° Southeast 291 335 10,000  Level FlightAware
01:05PM 34.0400 -118.7350 117° Southeast 288 331 10,000  Level FlightAware
01:05PM 34.0340 -118.7120 107° East 284 327 10,000  Level FlightAware
01:06PM 34.0310 -118.6800 96° East 286 329 10,000 -300 Level FlightAware
01:06PM 34.0280 -118.6450 96° East 284 327 9,800 -900 Descending FlightAware
01:06PM 34.0250 -118.6150 97° East 283 326 9,400 -1,440 Descending FlightAware
01:07PM 34.0220 -118.5840 97° East 283 326 8,900 -1,380 Descending FlightAware
01:07PM 34.0190 -118.5430 95° East 278 320 8,400 -1,140 Descending FlightAware
01:07PM 34.0180 -118.5340 98° East 278 320 8,300 -1,260 Descending FlightAware
01:08PM 34.0130 -118.4910 98° East 272 313 7,700 -1,140 Descending FlightAware
01:08PM 34.0110 -118.4590 94° East 256 295 7,400 -960 Descending FlightAware
01:08PM 34.0100 -118.4380 93° East 246 283 7,100 -1,500 Descending FlightAware
01:09PM 34.0080 -118.4100 95° East 231 266 6,500 -1,740 Descending FlightAware
01:09PM 34.0060 -118.3920 98° East 226 260 6,100 -2,400 Descending FlightAware
01:09PM 34.0050 -118.3740 94° East 227 261 5,400 -2,760 Descending FlightAware
01:09PM 34.0040 -118.3530 93° East 228 262 4,700 -1,620 Descending FlightAware
01:10PM 34.0060 -118.3310 84° East 214 246 4,300 -1,200 Descending FlightAware
01:10PM 34.0130 -118.2990 75° East 193 222 3,800 -1,080 Descending FlightAware
01:11PM 34.0190 -118.2750 73° East 191 220 3,500 -960 Descending FlightAware
01:11PM 34.0230 -118.2530 78° East 192 221 3,100 -780 Descending FlightAware
01:11PM 34.0170 -118.2340 111° Southeast 193 222 2,800 -660 Descending FlightAware
01:12PM 33.9930 -118.2310 174° South 186 214 2,600 -360 Descending FlightAware
01:12PM 33.9780 -118.2420 211° Southwest 192 221 2,600  Level FlightAware
01:12PM 33.9770 -118.2430 220° Southwest 190 219 2,600 -300 Level FlightAware
01:12PM 33.9690 -118.2610 242° Southwest 174 200 2,500 -780 Descending FlightAware
01:13PM 33.9630 -118.2900 256° West 176 203 2,000 -1,020 Descending FlightAware
01:13PM 33.9620 -118.3110 267° West 168 193 1,600 -960 Descending FlightAware
01:14PM 33.9610 -118.3200 262° West 165 190 1,400 -660 Descending FlightAware
01:14PM 33.9580 -118.3480 263° West 144 166 1,000 -840 Descending FlightAware
01:15PM 33.9550 -118.3720 261° West 145 167 600 -1,020 Descending FlightAware
01:15PM 33.9530 -118.3970 264° West 153 176 200 -480 Descending FlightAware
01:16PM 33.9500 -118.4160 259° West 153 176 200  Level FlightAware